Terminal Aerodrome Forecast
Issued by NWS Knoxville/Tri Cities, TN

Home | Current Version | Previous Version | Text Only | Print | Product List | Glossary On
Versions: 1 2 3 4 5 6 7 8 9 10 11 12 13 14 15 16 17 18 19 20 21 22 23 24 25 26 27 28 29 30
000
FTUS44 KMRX 310117 AAA
TAFCHA
TAF AMD
KCHA 310117Z 3101/3124 VRB03KT 3SM -TSRA BR BKN050CB OVC120
      TEMPO 3101/3102 VRB10G20KT 1SM +TSRA BR BKN020CB
     FM310200 00000KT P6SM VCTS SCT050CB BKN120
     FM310400 00000KT P6SM FEW045 BKN120
     FM311300 18004KT P6SM SCT035 BKN100=

USA.gov is the U.S. government's official web portal to all federal, state and local government web resources and services.